Time;durP1;ratioP1;P1;durP2;ratioP2;P2;SDS_P1;SDS_P2;PMS_P1;PMS_P2;Temp;Humidity;BMP_temperature;BMP_pressure;BME280_temperature;BME280_humidity;BME280_pressure;Samples;Min_cycle;Max_cycle;Signal;HPM_P1;HPM_P2
2022/02/03 00:00:07;;;;;;;8.97;3.20;;;;;;;;;;5137587;27;20441;-74
2022/02/03 00:02:48;;;;;;;8.57;2.73;;;;;;;;;;5138514;27;20849;-74
2022/02/03 00:05:21;;;;;;;11.80;2.13;;;;;;;;;;5132627;27;20453;-74
2022/02/03 00:08:05;;;;;;;29.97;9.13;;;;;;;;;;5140483;27;20473;-74
2022/02/03 00:10:48;;;;;;;9.70;2.33;;;;;;;;;;5149729;27;20786;-73
2022/02/03 00:24:30;;;;;;;9.17;1.97;;;;;;;;;;5158590;27;20513;-73
2022/02/03 00:27:02;;;;;;;11.23;2.60;;;;;;;;;;5159526;27;20448;-73
2022/02/03 00:29:49;;;;;;;8.90;2.20;;;;;;;;;;5157512;27;20445;-73
2022/02/03 00:32:40;;;;;;;7.77;1.80;;;;;;;;;;5124717;27;20487;-74
2022/02/03 00:38:04;;;;;;;6.03;1.87;;;;;;;;;;5137391;27;20449;-74
2022/02/03 00:48:57;;;;;;;13.53;3.00;;;;;;;;;;5116242;28;20473;-73
2022/02/03 00:51:25;;;;;;;8.60;2.47;;;;;;;;;;5125919;27;20861;-73
2022/02/03 00:53:55;;;;;;;18.30;2.93;;;;;;;;;;5137369;27;20555;-74
2022/02/03 00:56:26;;;;;;;9.40;2.50;;;;;;;;;;5119075;27;20485;-74
2022/02/03 00:58:54;;;;;;;11.70;1.90;;;;;;;;;;5118437;27;20474;-74
2022/02/03 01:01:27;;;;;;;9.50;5.33;;;;;;;;;;5148291;27;20458;-74
2022/02/03 01:03:57;;;;;;;14.07;2.23;;;;;;;;;;5137957;27;20821;-74
2022/02/03 01:06:28;;;;;;;9.53;2.10;;;;;;;;;;5117209;28;20456;-73
2022/02/03 01:08:57;;;;;;;6.77;2.77;;;;;;;;;;5126799;27;20488;-73
2022/02/03 01:11:34;;;;;;;12.57;3.23;;;;;;;;;;5137114;27;20461;-74
2022/02/03 01:14:08;;;;;;;5.30;1.60;;;;;;;;;;5137832;27;20445;-74
2022/02/03 01:16:51;;;;;;;4.50;1.80;;;;;;;;;;5154640;27;20484;-74
2022/02/03 01:33:44;;;;;;;15.43;2.63;;;;;;;;;;5137328;27;20421;-74
2022/02/03 01:44:45;;;;;;;12.63;2.50;;;;;;;;;;5135962;27;20413;-73
2022/02/03 01:47:26;;;;;;;10.40;2.53;;;;;;;;;;5139712;27;20799;-73
2022/02/03 01:52:40;;;;;;;9.93;3.20;;;;;;;;;;5135605;28;20579;-73
2022/02/03 01:55:09;;;;;;;3.77;1.83;;;;;;;;;;5135837;28;20854;-73
2022/02/03 01:57:38;;;;;;;8.40;2.00;;;;;;;;;;5125869;28;20846;-73
2022/02/03 02:00:09;;;;;;;9.27;2.90;;;;;;;;;;5131912;27;20441;-73
2022/02/03 02:02:39;;;;;;;7.50;2.13;;;;;;;;;;5160313;27;20449;-73
2022/02/03 02:05:16;;;;;;;3.43;1.70;;;;;;;;;;5156698;27;20470;-73
2022/02/03 02:07:58;;;;;;;9.23;2.63;;;;;;;;;;5140354;27;20578;-73
2022/02/03 02:10:49;;;;;;;9.20;2.90;;;;;;;;;;5139492;27;20457;-74
2022/02/03 02:13:36;;;;;;;17.47;3.33;;;;;;;;;;5140794;27;20457;-73
2022/02/03 02:16:27;;;;;;;5.87;3.33;;;;;;;;;;5141302;27;20456;-74
2022/02/03 02:19:08;;;;;;;6.97;2.83;;;;;;;;;;5142213;27;20441;-74
2022/02/03 02:38:29;;;;;;;12.50;2.50;;;;;;;;;;5120244;28;20770;-73
2022/02/03 02:43:53;;;;;;;4.57;2.20;;;;;;;;;;5114222;28;20423;-73
2022/02/03 02:46:24;;;;;;;6.80;2.23;;;;;;;;;;5128552;27;20542;-73
2022/02/03 02:49:12;;;;;;;6.27;1.67;;;;;;;;;;5139656;27;20473;-74
2022/02/03 02:51:42;;;;;;;10.50;2.23;;;;;;;;;;5140224;27;20453;-73
2022/02/03 02:57:11;;;;;;;8.43;2.27;;;;;;;;;;5142897;27;20741;-73
2022/02/03 03:00:14;;;;;;;5.37;1.60;;;;;;;;;;5127857;27;20445;-73
2022/02/03 03:03:14;;;;;;;12.37;2.23;;;;;;;;;;5135858;27;20570;-73
2022/02/03 03:30:52;;;;;;;9.77;1.90;;;;;;;;;;5139135;27;20927;-73
2022/02/03 03:33:28;;;;;;;8.60;2.63;;;;;;;;;;5140748;27;20889;-73
2022/02/03 03:36:00;;;;;;;11.93;3.30;;;;;;;;;;5140339;27;20449;-73
2022/02/03 03:38:33;;;;;;;15.43;3.00;;;;;;;;;;5133388;27;20826;-73
2022/02/03 03:41:02;;;;;;;14.60;2.83;;;;;;;;;;5139184;27;20477;-73
2022/02/03 03:43:32;;;;;;;5.97;2.60;;;;;;;;;;5140105;27;20465;-73
2022/02/03 03:46:04;;;;;;;11.47;3.67;;;;;;;;;;5139210;27;20476;-73
2022/02/03 03:48:40;;;;;;;9.20;2.97;;;;;;;;;;5140024;27;20542;-73
2022/02/03 03:51:12;;;;;;;14.50;4.00;;;;;;;;;;5139999;27;20453;-73
2022/02/03 03:53:48;;;;;;;6.50;3.03;;;;;;;;;;5139022;27;20469;-73
2022/02/03 03:56:28;;;;;;;14.90;3.50;;;;;;;;;;5150695;27;20521;-73
2022/02/03 03:59:22;;;;;;;11.10;2.83;;;;;;;;;;5146440;27;20527;-73
2022/02/03 04:34:07;;;;;;;11.23;2.70;;;;;;;;;;5055181;28;20987;-73
2022/02/03 04:37:24;;;;;;;7.80;2.73;;;;;;;;;;5118699;27;20458;-73
2022/02/03 04:43:19;;;;;;;9.53;3.17;;;;;;;;;;5117595;28;20702;-72
2022/02/03 05:03:32;;;;;;;15.43;3.90;;;;;;;;;;5130944;27;20426;-73
2022/02/03 05:06:03;;;;;;;12.60;3.30;;;;;;;;;;5118352;27;20474;-73
2022/02/03 05:08:44;;;;;;;14.73;3.50;;;;;;;;;;5140717;27;20480;-73
2022/02/03 05:11:36;;;;;;;16.57;4.70;;;;;;;;;;5138098;27;20539;-72
2022/02/03 05:14:54;;;;;;;11.73;3.63;;;;;;;;;;5137915;27;20750;-72
2022/02/03 05:17:53;;;;;;;15.80;4.00;;;;;;;;;;5136619;27;20546;-72
2022/02/03 05:20:38;;;;;;;13.20;4.27;;;;;;;;;;5151994;27;20803;-72
2022/02/03 05:23:36;;;;;;;10.83;3.77;;;;;;;;;;5152449;27;20445;-72
2022/02/03 05:26:32;;;;;;;12.17;3.80;;;;;;;;;;5117105;28;20457;-73
2022/02/03 05:32:34;;;;;;;11.37;4.90;;;;;;;;;;5136592;27;20436;-73
2022/02/03 05:43:55;;;;;;;11.53;4.90;;;;;;;;;;5138010;27;20433;-74
2022/02/03 05:52:31;;;;;;;12.30;6.40;;;;;;;;;;5136961;28;20413;-74
2022/02/03 05:55:28;;;;;;;8.60;4.40;;;;;;;;;;5130904;28;20454;-74
2022/02/03 06:01:21;;;;;;;13.20;5.97;;;;;;;;;;5134749;27;20864;-74
2022/02/03 06:07:15;;;;;;;9.47;4.83;;;;;;;;;;5137358;27;20445;-74
2022/02/03 06:11:58;;;;;;;6.30;4.27;;;;;;;;;;5138495;27;20562;-73
2022/02/03 06:15:24;;;;;;;13.20;6.10;;;;;;;;;;5127701;28;20441;-72
2022/02/03 06:20:41;;;;;;;6.20;4.20;;;;;;;;;;5123199;28;20505;-73
2022/02/03 06:23:57;;;;;;;311.70;80.03;;;;;;;;;;5132527;28;20438;-73
2022/02/03 06:29:14;;;;;;;10.40;5.20;;;;;;;;;;5134371;28;21102;-73
2022/02/03 06:31:42;;;;;;;246.10;64.80;;;;;;;;;;5133154;28;20530;-73
2022/02/03 06:34:10;;;;;;;7.90;4.20;;;;;;;;;;5134284;28;20553;-73
2022/02/03 06:36:38;;;;;;;6.80;3.27;;;;;;;;;;5129790;28;20860;-73
2022/02/03 06:39:15;;;;;;;8.20;5.70;;;;;;;;;;5125460;28;20516;-72
2022/02/03 06:41:44;;;;;;;7.37;3.77;;;;;;;;;;5114129;28;20454;-72
2022/02/03 06:44:14;;;;;;;7.77;4.07;;;;;;;;;;5114781;28;20454;-72
2022/02/03 06:46:47;;;;;;;11.17;5.80;;;;;;;;;;5133879;28;20556;-72
2022/02/03 06:49:19;;;;;;;6.77;3.80;;;;;;;;;;5129510;27;20477;-74
2022/02/03 06:51:56;;;;;;;7.10;4.00;;;;;;;;;;5129086;27;20472;-73
2022/02/03 06:54:34;;;;;;;6.33;3.47;;;;;;;;;;5130509;27;20495;-73
2022/02/03 06:57:05;;;;;;;5.87;3.37;;;;;;;;;;5133157;27;20909;-72
2022/02/03 06:59:42;;;;;;;6.80;4.20;;;;;;;;;;5135921;27;20540;-73
2022/02/03 07:02:28;;;;;;;7.53;4.00;;;;;;;;;;5124623;27;20481;-73
2022/02/03 07:05:00;;;;;;;6.30;3.33;;;;;;;;;;5133462;27;20457;-73
2022/02/03 07:07:30;;;;;;;5.97;3.13;;;;;;;;;;5137342;27;20453;-72
2022/02/03 07:10:01;;;;;;;8.00;3.33;;;;;;;;;;5137061;27;20481;-73
2022/02/03 07:12:29;;;;;;;8.67;3.87;;;;;;;;;;5137417;27;20524;-72
2022/02/03 07:14:56;;;;;;;4.97;3.17;;;;;;;;;;5136975;27;20713;-72
2022/02/03 07:17:27;;;;;;;6.27;3.63;;;;;;;;;;5136666;27;20452;-73
2022/02/03 07:20:00;;;;;;;5.20;3.63;;;;;;;;;;5136466;27;20488;-73
2022/02/03 07:22:28;;;;;;;6.03;3.70;;;;;;;;;;5131704;27;20476;-73
2022/02/03 07:24:57;;;;;;;5.57;3.57;;;;;;;;;;5121487;27;20498;-73
2022/02/03 07:27:48;;;;;;;5.20;3.50;;;;;;;;;;5136797;27;20450;-72
2022/02/03 07:30:42;;;;;;;9.70;4.27;;;;;;;;;;5132238;27;20486;-73
2022/02/03 07:33:10;;;;;;;5.93;4.00;;;;;;;;;;5137158;27;20481;-72
2022/02/03 07:35:45;;;;;;;5.30;3.70;;;;;;;;;;5123477;27;20795;-73
2022/02/03 07:38:13;;;;;;;6.67;4.57;;;;;;;;;;5117845;27;20472;-72
2022/02/03 07:40:42;;;;;;;3.93;2.67;;;;;;;;;;5126192;27;20438;-73
2022/02/03 07:43:11;;;;;;;5.17;2.73;;;;;;;;;;5130104;27;20481;-72
2022/02/03 07:45:46;;;;;;;5.37;3.53;;;;;;;;;;5118135;27;20447;-72
2022/02/03 07:48:14;;;;;;;6.03;3.33;;;;;;;;;;5156514;27;20869;-72
2022/02/03 07:50:44;;;;;;;5.63;3.47;;;;;;;;;;5158589;27;20558;-73
2022/02/03 07:53:13;;;;;;;6.03;3.90;;;;;;;;;;5157871;27;20467;-71
2022/02/03 07:55:40;;;;;;;5.77;3.73;;;;;;;;;;5157998;27;20448;-73
2022/02/03 07:58:08;;;;;;;7.47;3.87;;;;;;;;;;5157830;27;20876;-73
2022/02/03 08:00:49;;;;;;;6.03;3.50;;;;;;;;;;5157455;27;20430;-72
2022/02/03 08:03:17;;;;;;;4.40;3.37;;;;;;;;;;5156595;27;20436;-72
2022/02/03 08:06:01;;;;;;;5.50;3.57;;;;;;;;;;5156848;27;20572;-72
2022/02/03 08:08:33;;;;;;;6.60;4.57;;;;;;;;;;5136561;27;20454;-73
2022/02/03 08:11:04;;;;;;;6.83;4.40;;;;;;;;;;5136849;27;20452;-71
2022/02/03 08:13:59;;;;;;;;;;;;;;;;;;;;;
2022/02/03 08:19:55;;;;;;;9.17;4.73;;;;;;;;;;5093170;28;20423;-73
2022/02/03 08:22:33;;;;;;;10.93;4.40;;;;;;;;;;5115570;28;20565;-73
2022/02/03 08:28:28;;;;;;;9.27;5.93;;;;;;;;;;5129701;27;20511;-72
2022/02/03 08:33:54;;;;;;;10.97;6.10;;;;;;;;;;5109326;27;20453;-73
2022/02/03 08:39:36;;;;;;;17.67;8.37;;;;;;;;;;5122336;27;20510;-72
2022/02/03 08:42:08;;;;;;;12.77;6.53;;;;;;;;;;5114902;28;20529;-73
2022/02/03 08:44:42;;;;;;;14.50;8.07;;;;;;;;;;5115780;27;20711;-73
2022/02/03 08:47:10;;;;;;;20.87;11.77;;;;;;;;;;5126520;27;20479;-74
2022/02/03 08:49:46;;;;;;;13.30;7.87;;;;;;;;;;5133283;27;20489;-71
2022/02/03 08:52:18;;;;;;;16.13;10.20;;;;;;;;;;5134089;27;20552;-73
2022/02/03 08:55:01;;;;;;;14.50;8.10;;;;;;;;;;5135879;27;20499;-72
2022/02/03 08:57:40;;;;;;;122.37;41.37;;;;;;;;;;5117096;27;20449;-72
2022/02/03 09:54:11;;;;;;;9.30;6.23;;;;;;;;;;5109590;28;20450;-73
2022/02/03 09:59:47;;;;;;;12.93;7.40;;;;;;;;;;5116625;28;20498;-73
2022/02/03 10:02:20;;;;;;;9.67;5.20;;;;;;;;;;5113436;28;20439;-72
2022/02/03 10:07:41;;;;;;;10.60;6.00;;;;;;;;;;5132195;28;20440;-72
2022/02/03 10:10:17;;;;;;;9.80;5.80;;;;;;;;;;5134036;27;20473;-73
2022/02/03 10:12:50;;;;;;;12.47;5.60;;;;;;;;;;5124921;27;20442;-73
2022/02/03 10:15:22;;;;;;;11.93;6.30;;;;;;;;;;5121644;28;21094;-72
2022/02/03 10:17:56;;;;;;;11.60;6.23;;;;;;;;;;5133966;28;20450;-72
2022/02/03 10:20:29;;;;;;;16.73;8.83;;;;;;;;;;5123702;28;20455;-72
2022/02/03 10:23:05;;;;;;;12.97;8.20;;;;;;;;;;5127415;27;20518;-73
2022/02/03 10:25:38;;;;;;;12.07;6.67;;;;;;;;;;5125936;27;20453;-74
2022/02/03 10:28:13;;;;;;;273.13;78.20;;;;;;;;;;5130863;27;20747;-73
2022/02/03 10:30:56;;;;;;;9.13;5.57;;;;;;;;;;5116595;28;20490;-72
2022/02/03 10:36:22;;;;;;;26.70;11.60;;;;;;;;;;5133199;27;20466;-73
2022/02/03 10:39:27;;;;;;;18.00;9.10;;;;;;;;;;5137667;27;20437;-73
2022/02/03 10:44:59;;;;;;;14.20;7.23;;;;;;;;;;5128468;27;21366;-73
2022/02/03 10:57:06;;;;;;;14.20;8.33;;;;;;;;;;5090959;27;20486;-74
2022/02/03 11:02:40;;;;;;;19.07;10.17;;;;;;;;;;5133348;27;20602;-73
2022/02/03 11:05:42;;;;;;;23.40;11.70;;;;;;;;;;5126718;27;20826;-72
2022/02/03 11:08:19;;;;;;;22.77;9.93;;;;;;;;;;5137645;27;20449;-73
2022/02/03 11:10:55;;;;;;;25.80;12.30;;;;;;;;;;5137575;27;20490;-73
2022/02/03 11:13:33;;;;;;;24.43;12.60;;;;;;;;;;5123226;27;20854;-73
2022/02/03 11:16:04;;;;;;;26.30;13.67;;;;;;;;;;5125240;27;20519;-72
2022/02/03 11:18:33;;;;;;;33.17;14.53;;;;;;;;;;5135468;27;20441;-72
2022/02/03 11:21:02;;;;;;;26.07;13.57;;;;;;;;;;5136974;27;20541;-72
2022/02/03 11:23:40;;;;;;;27.43;13.57;;;;;;;;;;5132831;27;20462;-73
2022/02/03 11:26:17;;;;;;;27.57;13.20;;;;;;;;;;5136261;27;20540;-71
2022/02/03 11:29:18;;;;;;;30.17;16.30;;;;;;;;;;5116903;27;20883;-73
2022/02/03 11:32:12;;;;;;;31.80;16.30;;;;;;;;;;5125517;27;20529;-72
2022/02/03 11:37:57;;;;;;;23.43;12.00;;;;;;;;;;5122608;27;20583;-72
2022/02/03 11:44:09;;;;;;;25.57;12.63;;;;;;;;;;5094957;27;20435;-72
2022/02/03 11:50:27;;;;;;;29.77;14.97;;;;;;;;;;5074043;28;20460;-72
2022/02/03 11:59:36;;;;;;;20.00;8.77;;;;;;;;;;5131398;27;20559;-72
2022/02/03 12:02:34;;;;;;;21.77;10.13;;;;;;;;;;5122800;27;20458;-73
2022/02/03 12:11:38;;;;;;;22.50;11.20;;;;;;;;;;5134747;27;20579;-73
2022/02/03 12:17:24;;;;;;;18.87;10.53;;;;;;;;;;5136515;27;21034;-74
2022/02/03 12:20:09;;;;;;;24.33;13.30;;;;;;;;;;5135902;27;20580;-72
2022/02/03 12:23:04;;;;;;;18.70;7.90;;;;;;;;;;5136536;27;20541;-72
2022/02/03 12:25:55;;;;;;;18.47;11.10;;;;;;;;;;5136393;27;20503;-73
2022/02/03 12:28:39;;;;;;;13.30;6.77;;;;;;;;;;5114701;28;20450;-73
2022/02/03 12:31:51;;;;;;;18.50;10.10;;;;;;;;;;5116772;28;20471;-73
2022/02/03 12:37:26;;;;;;;14.30;5.63;;;;;;;;;;5122663;27;20433;-72
2022/02/03 12:40:00;;;;;;;19.57;10.70;;;;;;;;;;5122329;27;20443;-72
2022/02/03 12:42:46;;;;;;;16.93;8.83;;;;;;;;;;5116148;27;20461;-72
2022/02/03 12:45:26;;;;;;;15.57;8.57;;;;;;;;;;5124953;27;20442;-71
2022/02/03 12:47:56;;;;;;;14.40;8.00;;;;;;;;;;5115545;28;20462;-72
2022/02/03 12:50:33;;;;;;;9.40;6.03;;;;;;;;;;5114993;27;20479;-72
2022/02/03 12:53:02;;;;;;;15.73;8.70;;;;;;;;;;5114896;28;20443;-71
2022/02/03 12:55:32;;;;;;;5.67;2.73;;;;;;;;;;5116100;28;20730;-71
2022/02/03 12:58:17;;;;;;;19.57;7.60;;;;;;;;;;5132611;27;20529;-71
2022/02/03 13:00:58;;;;;;;18.70;6.83;;;;;;;;;;5119405;27;20831;-71
2022/02/03 13:03:33;;;;;;;12.77;6.13;;;;;;;;;;5136976;27;20498;-74
2022/02/03 13:06:06;;;;;;;21.43;10.27;;;;;;;;;;5130960;27;20491;-71
2022/02/03 13:08:36;;;;;;;8.73;4.03;;;;;;;;;;5115770;28;20459;-71
2022/02/03 13:11:16;;;;;;;12.13;7.33;;;;;;;;;;5117193;27;20511;-72
2022/02/03 13:14:03;;;;;;;16.30;9.13;;;;;;;;;;5130711;27;20525;-72
2022/02/03 13:16:33;;;;;;;16.23;9.60;;;;;;;;;;5117413;27;20447;-72
2022/02/03 13:19:13;;;;;;;11.80;7.37;;;;;;;;;;5127918;27;20519;-72
2022/02/03 13:22:01;;;;;;;13.87;7.63;;;;;;;;;;5136067;27;20477;-71
2022/02/03 13:25:01;;;;;;;12.77;8.50;;;;;;;;;;5137279;27;20435;-71
2022/02/03 13:27:56;;;;;;;16.37;9.13;;;;;;;;;;5136020;27;20445;-72
2022/02/03 13:30:49;;;;;;;8.47;5.70;;;;;;;;;;5136206;27;20477;-72
2022/02/03 13:36:39;;;;;;;12.77;6.63;;;;;;;;;;5121351;27;20451;-70
2022/02/03 13:39:15;;;;;;;10.30;6.57;;;;;;;;;;5145898;27;20453;-70
2022/02/03 13:41:50;;;;;;;10.30;6.20;;;;;;;;;;5136161;27;20525;-70
2022/02/03 13:44:29;;;;;;;11.50;7.00;;;;;;;;;;5136306;27;20456;-70
2022/02/03 13:47:00;;;;;;;6.43;4.70;;;;;;;;;;5122287;27;20519;-72
2022/02/03 13:49:30;;;;;;;12.90;6.50;;;;;;;;;;5131879;27;20482;-71
2022/02/03 13:52:01;;;;;;;11.80;5.37;;;;;;;;;;5124648;27;20510;-72
2022/02/03 14:10:26;;;;;;;7.67;5.17;;;;;;;;;;5114479;28;20461;-71
2022/02/03 14:14:56;;;;;;;10.10;5.60;;;;;;;;;;5122041;28;20425;-71
2022/02/03 14:17:46;;;;;;;7.67;4.57;;;;;;;;;;5124670;28;20461;-71
2022/02/03 14:23:24;;;;;;;10.60;5.20;;;;;;;;;;5120846;27;20900;-71
2022/02/03 14:28:43;;;;;;;6.87;4.83;;;;;;;;;;5114803;28;20701;-71
2022/02/03 14:31:11;;;;;;;7.10;5.40;;;;;;;;;;5131105;27;20579;-70
2022/02/03 14:36:57;;;;;;;6.20;4.23;;;;;;;;;;5103720;28;20458;-71
2022/02/03 14:39:41;;;;;;;7.60;4.87;;;;;;;;;;5107277;27;20867;-71
2022/02/03 14:42:29;;;;;;;9.10;5.10;;;;;;;;;;5113592;28;20451;-70
2022/02/03 14:45:14;;;;;;;8.30;5.17;;;;;;;;;;5106834;28;21131;-71
2022/02/03 14:47:51;;;;;;;7.53;5.50;;;;;;;;;;5100444;28;20577;-70
2022/02/03 14:50:26;;;;;;;8.67;4.93;;;;;;;;;;5106316;28;20486;-71
2022/02/03 14:53:08;;;;;;;6.60;4.33;;;;;;;;;;5096786;28;20540;-71
2022/02/03 14:58:28;;;;;;;7.87;4.33;;;;;;;;;;5106127;28;20495;-71
2022/02/03 15:01:16;;;;;;;7.93;4.43;;;;;;;;;;5102307;27;20587;-70
2022/02/03 15:03:44;;;;;;;7.90;4.97;;;;;;;;;;5102026;28;20531;-70
2022/02/03 15:06:22;;;;;;;6.83;4.70;;;;;;;;;;5127005;28;20538;-72
2022/02/03 15:08:58;;;;;;;10.53;6.93;;;;;;;;;;5131478;27;20537;-71
2022/02/03 15:11:44;;;;;;;7.60;4.67;;;;;;;;;;5121839;27;20501;-72
2022/02/03 15:14:12;;;;;;;8.97;4.20;;;;;;;;;;5096331;28;20522;-72
2022/02/03 15:16:45;;;;;;;7.10;5.40;;;;;;;;;;5106417;28;20553;-72
2022/02/03 15:19:13;;;;;;;6.63;5.10;;;;;;;;;;5096210;28;20452;-70
2022/02/03 15:21:43;;;;;;;7.40;5.10;;;;;;;;;;5095975;28;20440;-70
2022/02/03 15:24:15;;;;;;;11.10;5.43;;;;;;;;;;5096699;28;20466;-72
2022/02/03 15:27:05;;;;;;;;;;;;;;;;;;;;;
2022/02/03 15:29:37;;;;;;;11.77;6.63;;;;;;;;;;5108987;28;20469;-71
2022/02/03 15:32:10;;;;;;;8.10;5.87;;;;;;;;;;5113373;27;20478;-71
2022/02/03 15:34:50;;;;;;;10.53;5.93;;;;;;;;;;5112902;28;20447;-71
2022/02/03 15:37:22;;;;;;;12.83;7.33;;;;;;;;;;5100722;28;20878;-70
2022/02/03 15:40:01;;;;;;;8.90;6.60;;;;;;;;;;5113756;27;20862;-71
2022/02/03 15:42:38;;;;;;;9.27;6.07;;;;;;;;;;5096213;28;20572;-70
2022/02/03 15:45:07;;;;;;;14.43;9.00;;;;;;;;;;5099650;27;20435;-71
2022/02/03 15:47:42;;;;;;;15.60;7.13;;;;;;;;;;5120942;27;20463;-71
2022/02/03 15:50:43;;;;;;;10.80;7.17;;;;;;;;;;5105448;28;20440;-71
2022/02/03 16:18:33;;;;;;;10.47;5.37;;;;;;;;;;5114386;27;20830;-71
2022/02/03 16:21:14;;;;;;;13.00;8.10;;;;;;;;;;5100909;27;20467;-71
2022/02/03 16:41:03;;;;;;;12.80;6.57;;;;;;;;;;5117673;27;20487;-71
2022/02/03 16:54:48;;;;;;;20.63;11.87;;;;;;;;;;5091066;28;20540;-72
2022/02/03 16:57:20;;;;;;;16.00;9.93;;;;;;;;;;5094421;28;20447;-72
2022/02/03 17:00:02;;;;;;;8.40;6.83;;;;;;;;;;5118683;27;20465;-71
2022/02/03 17:02:31;;;;;;;13.20;7.57;;;;;;;;;;5135925;27;20474;-72
2022/02/03 17:04:59;;;;;;;10.20;7.10;;;;;;;;;;5135238;27;20584;-72
2022/02/03 17:07:29;;;;;;;11.70;7.13;;;;;;;;;;5135010;27;20869;-73
2022/02/03 17:09:59;;;;;;;8.90;5.33;;;;;;;;;;5127880;27;20571;-71
2022/02/03 17:12:38;;;;;;;9.27;6.33;;;;;;;;;;5094676;28;20483;-73
2022/02/03 17:15:11;;;;;;;10.43;6.67;;;;;;;;;;5094181;28;20462;-70
2022/02/03 17:17:50;;;;;;;14.40;8.97;;;;;;;;;;5096829;28;20530;-72
2022/02/03 17:20:38;;;;;;;11.40;7.67;;;;;;;;;;5093632;28;20592;-72
2022/02/03 17:23:19;;;;;;;16.20;8.97;;;;;;;;;;5096536;28;20435;-71
2022/02/03 17:25:55;;;;;;;14.10;7.40;;;;;;;;;;5095876;28;20563;-71
2022/02/03 17:28:29;;;;;;;11.00;8.17;;;;;;;;;;5093505;28;20806;-71
2022/02/03 17:31:08;;;;;;;12.27;7.73;;;;;;;;;;5094390;28;20495;-72
2022/02/03 18:10:39;;;;;;;15.93;10.33;;;;;;;;;;5097184;28;20438;-72
2022/02/03 18:30:18;;;;;;;21.07;11.93;;;;;;;;;;5135384;27;20417;-73
2022/02/03 18:35:52;;;;;;;15.50;8.70;;;;;;;;;;5128390;28;20741;-70
2022/02/03 18:52:52;;;;;;;12.90;8.40;;;;;;;;;;5128709;27;20555;-71
2022/02/03 18:55:27;;;;;;;15.90;8.93;;;;;;;;;;5118681;28;20829;-71
2022/02/03 18:58:01;;;;;;;13.80;8.00;;;;;;;;;;5118038;27;20792;-71
2022/02/03 19:57:40;;;;;;;15.10;9.63;;;;;;;;;;5128017;27;20472;-72
2022/02/03 20:03:22;;;;;;;16.23;10.60;;;;;;;;;;5097057;27;20445;-73
2022/02/03 20:05:54;;;;;;;25.60;14.57;;;;;;;;;;5116568;28;20858;-71
2022/02/03 20:08:29;;;;;;;20.67;13.27;;;;;;;;;;5118191;28;20446;-72
2022/02/03 20:10:57;;;;;;;17.13;11.03;;;;;;;;;;5118409;28;20482;-73
2022/02/03 20:13:27;;;;;;;23.60;13.40;;;;;;;;;;5118071;28;20527;-72
2022/02/03 20:15:55;;;;;;;18.13;11.30;;;;;;;;;;5117355;28;20497;-72
2022/02/03 20:18:23;;;;;;;21.87;15.00;;;;;;;;;;5117889;28;20459;-72
2022/02/03 20:20:51;;;;;;;15.47;10.37;;;;;;;;;;5115211;28;20545;-72
2022/02/03 20:23:21;;;;;;;17.20;11.10;;;;;;;;;;5115875;27;20465;-72
2022/02/03 20:25:55;;;;;;;19.90;11.23;;;;;;;;;;5138468;27;21068;-71
2022/02/03 20:28:24;;;;;;;20.47;12.80;;;;;;;;;;5138233;27;20456;-72
2022/02/03 20:30:53;;;;;;;22.17;13.63;;;;;;;;;;5138459;27;20441;-71
2022/02/03 20:33:21;;;;;;;19.37;9.90;;;;;;;;;;5121198;27;20519;-72
2022/02/03 20:35:50;;;;;;;15.50;10.93;;;;;;;;;;5116857;28;20448;-71
2022/02/03 20:38:18;;;;;;;15.00;10.03;;;;;;;;;;5109743;28;20489;-71
2022/02/03 20:40:49;;;;;;;15.37;10.50;;;;;;;;;;5117444;28;20461;-71
2022/02/03 20:46:07;;;;;;;16.40;10.13;;;;;;;;;;5096577;28;20446;-70
2022/02/03 20:48:46;;;;;;;17.37;11.23;;;;;;;;;;5096810;28;20884;-72
2022/02/03 20:51:16;;;;;;;20.20;12.97;;;;;;;;;;5112137;28;20559;-70
2022/02/03 20:53:45;;;;;;;18.70;11.43;;;;;;;;;;5117124;28;20470;-72
2022/02/03 20:56:15;;;;;;;24.00;12.03;;;;;;;;;;5114920;28;20451;-70
2022/02/03 20:58:47;;;;;;;17.03;8.90;;;;;;;;;;5116521;28;20997;-72
2022/02/03 21:01:20;;;;;;;18.97;11.60;;;;;;;;;;5117284;28;20455;-72
2022/02/03 21:04:05;;;;;;;16.23;10.33;;;;;;;;;;5116836;28;20447;-71
2022/02/03 21:06:39;;;;;;;18.57;11.70;;;;;;;;;;5115946;28;20487;-72
2022/02/03 21:09:08;;;;;;;17.67;11.30;;;;;;;;;;5116462;28;20459;-71
2022/02/03 21:14:32;;;;;;;22.53;13.80;;;;;;;;;;5114472;28;20545;-71
2022/02/03 21:17:07;;;;;;;17.20;10.80;;;;;;;;;;5115510;28;20454;-71
2022/02/03 21:19:43;;;;;;;16.40;11.73;;;;;;;;;;5116630;28;20442;-71
2022/02/03 21:22:27;;;;;;;21.13;13.20;;;;;;;;;;5115717;28;20442;-71
2022/02/03 21:27:37;;;;;;;18.07;12.53;;;;;;;;;;5114195;28;20446;-72
2022/02/03 21:30:07;;;;;;;18.13;10.80;;;;;;;;;;5116567;28;20462;-71
2022/02/03 21:32:37;;;;;;;18.40;11.87;;;;;;;;;;5115583;28;20932;-72
2022/02/03 21:35:05;;;;;;;18.90;12.40;;;;;;;;;;5112435;28;20447;-72
2022/02/03 21:37:33;;;;;;;18.93;12.80;;;;;;;;;;5115051;28;20859;-72
2022/02/03 21:40:01;;;;;;;19.10;12.17;;;;;;;;;;5116129;28;20480;-72
2022/02/03 21:42:28;;;;;;;20.93;14.00;;;;;;;;;;5115604;28;20795;-72
2022/02/03 21:44:56;;;;;;;21.00;14.07;;;;;;;;;;5109799;28;20538;-72
2022/02/03 21:47:24;;;;;;;16.57;10.77;;;;;;;;;;5113838;28;20509;-71
2022/02/03 21:49:54;;;;;;;23.13;14.10;;;;;;;;;;5109973;27;20458;-72
2022/02/03 21:52:31;;;;;;;22.77;13.53;;;;;;;;;;5121283;27;20486;-70
2022/02/03 21:55:00;;;;;;;20.67;12.97;;;;;;;;;;5137173;27;20461;-70
2022/02/03 21:57:30;;;;;;;22.47;12.63;;;;;;;;;;5124861;27;20882;-71
2022/02/03 21:59:58;;;;;;;17.60;10.73;;;;;;;;;;5108639;28;20451;-70
2022/02/03 22:02:27;;;;;;;20.57;12.87;;;;;;;;;;5096617;28;21052;-70
2022/02/03 22:04:56;;;;;;;19.77;10.10;;;;;;;;;;5115987;28;20500;-70
2022/02/03 22:07:24;;;;;;;18.13;11.90;;;;;;;;;;5104018;28;20444;-71
2022/02/03 22:09:52;;;;;;;13.67;10.17;;;;;;;;;;5095805;28;20451;-71
2022/02/03 22:12:20;;;;;;;20.60;12.43;;;;;;;;;;5095303;28;20519;-70
2022/02/03 22:14:48;;;;;;;21.50;13.57;;;;;;;;;;5112533;28;20483;-70
2022/02/03 22:17:16;;;;;;;24.47;14.20;;;;;;;;;;5115313;28;21020;-70
2022/02/03 22:19:49;;;;;;;23.10;14.80;;;;;;;;;;5119029;28;20447;-70
2022/02/03 22:22:35;;;;;;;14.83;10.73;;;;;;;;;;5119837;28;20501;-71
2022/02/03 22:25:21;;;;;;;20.00;13.27;;;;;;;;;;5119673;28;20450;-70
2022/02/03 22:28:06;;;;;;;21.07;13.50;;;;;;;;;;5119817;28;20458;-72
2022/02/03 22:39:04;;;;;;;22.90;13.53;;;;;;;;;;5099131;28;20454;-70
2022/02/03 22:44:26;;;;;;;27.00;13.80;;;;;;;;;;5108627;28;20496;-70
2022/02/03 22:47:18;;;;;;;19.87;11.83;;;;;;;;;;5118980;28;20737;-70
2022/02/03 22:49:46;;;;;;;21.30;13.20;;;;;;;;;;5119560;28;20851;-71
2022/02/03 22:52:15;;;;;;;20.47;12.00;;;;;;;;;;5119255;28;20486;-71
2022/02/03 22:54:44;;;;;;;21.60;13.27;;;;;;;;;;5113863;28;20503;-70
2022/02/03 22:57:12;;;;;;;21.70;12.13;;;;;;;;;;5123278;27;20446;-71
2022/02/03 23:00:09;;;;;;;20.97;11.57;;;;;;;;;;5107956;28;20536;-71
2022/02/03 23:02:37;;;;;;;17.80;11.20;;;;;;;;;;5099148;28;20444;-72
2022/02/03 23:05:05;;;;;;;20.67;12.93;;;;;;;;;;5099115;28;20458;-72
2022/02/03 23:07:49;;;;;;;23.57;12.70;;;;;;;;;;5098347;28;20915;-72
2022/02/03 23:10:25;;;;;;;19.23;11.37;;;;;;;;;;5115389;28;20461;-72
2022/02/03 23:13:10;;;;;;;20.20;13.00;;;;;;;;;;5119026;28;20914;-72
2022/02/03 23:16:03;;;;;;;20.50;11.90;;;;;;;;;;5098684;28;20447;-72
2022/02/03 23:18:50;;;;;;;23.33;13.53;;;;;;;;;;5099115;28;20550;-72
2022/02/03 23:21:42;;;;;;;16.80;10.13;;;;;;;;;;5098846;28;20550;-71
2022/02/03 23:24:10;;;;;;;19.97;11.63;;;;;;;;;;5098934;28;20860;-72
2022/02/03 23:26:39;;;;;;;21.43;13.97;;;;;;;;;;5108723;28;20794;-72
2022/02/03 23:29:13;;;;;;;16.70;10.00;;;;;;;;;;5118808;28;20950;-72
2022/02/03 23:31:47;;;;;;;18.80;12.40;;;;;;;;;;5114138;28;20455;-72
2022/02/03 23:34:15;;;;;;;22.17;11.67;;;;;;;;;;5119051;28;20588;-72
2022/02/03 23:36:43;;;;;;;23.17;13.97;;;;;;;;;;5118387;28;20461;-72
2022/02/03 23:39:17;;;;;;;16.10;10.03;;;;;;;;;;5120533;27;20466;-72
2022/02/03 23:44:52;;;;;;;22.03;12.80;;;;;;;;;;5034223;28;20828;-71
2022/02/03 23:47:58;;;;;;;23.10;13.20;;;;;;;;;;5048125;28;20818;-72
